Time,TemperatureF,DewpointF,PressureIn,WindDirection,WindDirectionDegrees,WindSpeedMPH,WindSpeedGustMPH,Humidity,HourlyPrecipIn,Conditions,Clouds,dailyrainin,SoftwareType,DateUTC
2013-05-28 00:01:00,59.0,52.8,29.78,West,278,0.0,0.0,80,0.00,,---,0.00,VWS V14.01,2013-05-28 07:01:00,
2013-05-28 00:11:00,58.9,53.1,29.78,West,278,0.0,0.0,81,0.00,,---,0.00,VWS V14.01,2013-05-28 07:11:00,
2013-05-28 00:16:00,58.9,53.1,29.77,West,278,0.0,0.0,81,0.00,,---,0.00,VWS V14.01,2013-05-28 07:16:00,
2013-05-28 00:21:00,58.9,53.4,29.77,West,278,0.0,0.0,82,0.00,,---,0.00,VWS V14.01,2013-05-28 07:21:00,
2013-05-28 00:31:00,58.6,53.1,29.77,West,278,0.0,0.0,82,0.00,,---,0.00,VWS V14.01,2013-05-28 07:31:00,
2013-05-28 00:36:00,58.6,53.1,29.77,West,278,0.0,0.0,82,0.00,,---,0.00,VWS V14.01,2013-05-28 07:36:00,
2013-05-28 00:46:00,58.3,52.8,29.78,West,278,0.0,0.0,82,0.00,,---,0.00,VWS V14.01,2013-05-28 07:46:00,
2013-05-28 00:51:00,58.1,52.6,29.78,West,278,0.0,0.0,82,0.00,,---,0.00,VWS V14.01,2013-05-28 07:51:00,
2013-05-28 00:56:00,58.1,52.6,29.78,West,278,0.0,0.0,82,0.00,,---,0.00,VWS V14.01,2013-05-28 07:56:00,
2013-05-28 01:01:00,58.0,52.5,29.78,West,278,0.0,0.0,82,0.00,,---,0.00,VWS V14.01,2013-05-28 08:01:00,
2013-05-28 01:11:00,57.6,52.2,29.78,West,278,0.0,0.0,82,0.00,,---,0.00,VWS V14.01,2013-05-28 08:11:00,
2013-05-28 01:16:00,57.5,52.1,29.77,West,278,0.0,0.0,82,0.00,,---,0.00,VWS V14.01,2013-05-28 08:16:00,
2013-05-28 01:21:00,57.3,51.9,29.77,West,278,0.0,0.0,82,0.00,,---,0.00,VWS V14.01,2013-05-28 08:21:00,
2013-05-28 01:26:00,57.2,51.8,29.77,West,278,0.0,0.0,82,0.00,,---,0.00,VWS V14.01,2013-05-28 08:26:00,
2013-05-28 01:36:00,56.9,51.5,29.77,West,278,0.0,0.0,82,0.00,,---,0.00,VWS V14.01,2013-05-28 08:36:00,
2013-05-28 01:46:00,56.7,51.6,29.78,West,278,0.0,0.0,83,0.00,,---,0.00,VWS V14.01,2013-05-28 08:46:00,
2013-05-28 01:51:00,56.6,51.5,29.78,West,278,0.0,0.0,83,0.00,,---,0.00,VWS V14.01,2013-05-28 08:51:00,
2013-05-28 01:56:00,56.5,51.4,29.78,West,278,0.0,0.0,83,0.00,,---,0.00,VWS V14.01,2013-05-28 08:56:00,
2013-05-28 02:06:00,56.2,51.1,29.79,West,278,0.0,0.0,83,0.00,,---,0.00,VWS V14.01,2013-05-28 09:06:00,
2013-05-28 02:11:00,56.2,51.4,29.79,West,278,0.0,0.0,84,0.00,,---,0.00,VWS V14.01,2013-05-28 09:11:00,
2013-05-28 02:16:00,56.2,51.4,29.77,West,278,0.0,0.0,84,0.00,,---,0.00,VWS V14.01,2013-05-28 09:16:00,
2013-05-28 02:21:00,56.2,51.4,29.77,West,278,0.0,0.0,84,0.00,,---,0.00,VWS V14.01,2013-05-28 09:21:00,
2013-05-28 02:26:00,56.2,51.4,29.77,West,278,0.0,0.0,84,0.00,,---,0.00,VWS V14.01,2013-05-28 09:26:00,
2013-05-28 02:31:00,56.2,51.8,29.76,West,278,0.0,0.0,85,0.00,,---,0.00,VWS V14.01,2013-05-28 09:31:00,
2013-05-28 02:36:00,56.0,51.6,29.76,West,278,0.0,0.0,85,0.00,,---,0.00,VWS V14.01,2013-05-28 09:36:00,
2013-05-28 02:46:00,56.0,51.6,29.76,West,278,0.0,0.0,85,0.00,,---,0.00,VWS V14.01,2013-05-28 09:46:00,
2013-05-28 02:56:00,55.7,51.6,29.76,West,278,0.0,0.0,86,0.00,,---,0.00,VWS V14.01,2013-05-28 09:56:00,
2013-05-28 03:01:00,55.6,51.5,29.76,West,278,0.0,0.0,86,0.00,,---,0.00,VWS V14.01,2013-05-28 10:01:00,
2013-05-28 03:11:00,55.6,51.5,29.76,West,278,0.0,0.0,86,0.00,,---,0.00,VWS V14.01,2013-05-28 10:11:00,
2013-05-28 03:21:00,55.4,51.6,29.76,West,278,0.0,0.0,87,0.00,,---,0.00,VWS V14.01,2013-05-28 10:21:00,
2013-05-28 03:31:00,55.1,51.3,29.75,West,278,0.0,0.0,87,0.00,,---,0.00,VWS V14.01,2013-05-28 10:31:00,
2013-05-28 03:36:00,55.0,51.2,29.75,West,278,0.0,0.0,87,0.00,,---,0.00,VWS V14.01,2013-05-28 10:36:00,
2013-05-28 03:41:00,55.0,51.2,29.75,West,278,0.0,0.0,87,0.00,,---,0.00,VWS V14.01,2013-05-28 10:41:00,
2013-05-28 03:46:00,54.8,51.0,29.75,West,278,0.0,0.0,87,0.00,,---,0.00,VWS V14.01,2013-05-28 10:46:00,
2013-05-28 03:56:00,54.5,50.7,29.75,West,278,0.0,0.0,87,0.00,,---,0.00,VWS V14.01,2013-05-28 10:56:00,
2013-05-28 04:01:00,54.4,50.6,29.75,West,278,0.0,0.0,87,0.00,,---,0.00,VWS V14.01,2013-05-28 11:01:00,
2013-05-28 04:11:00,54.1,50.3,29.75,West,278,0.0,0.0,87,0.00,,---,0.00,VWS V14.01,2013-05-28 11:11:00,
2013-05-28 04:16:00,54.1,50.6,29.75,West,278,0.0,0.0,88,0.00,,---,0.00,VWS V14.01,2013-05-28 11:16:00,
2013-05-28 04:26:00,54.1,50.6,29.75,West,278,0.0,0.0,88,0.00,,---,0.00,VWS V14.01,2013-05-28 11:26:00,
2013-05-28 04:36:00,53.9,50.4,29.74,West,278,0.0,0.0,88,0.00,,---,0.00,VWS V14.01,2013-05-28 11:36:00,
2013-05-28 04:41:00,53.9,50.4,29.74,West,278,0.0,0.0,88,0.00,,---,0.00,VWS V14.01,2013-05-28 11:41:00,
2013-05-28 04:51:00,53.8,50.6,29.75,West,278,0.0,0.0,89,0.00,,---,0.00,VWS V14.01,2013-05-28 11:51:00,
2013-05-28 04:56:00,53.6,50.4,29.75,West,278,0.0,0.0,89,0.00,,---,0.00,VWS V14.01,2013-05-28 11:56:00,
2013-05-28 05:01:00,53.6,50.4,29.74,West,278,0.0,0.0,89,0.00,,---,0.00,VWS V14.01,2013-05-28 12:01:00,
2013-05-28 05:11:00,53.5,50.3,29.74,West,278,0.0,0.0,89,0.00,,---,0.00,VWS V14.01,2013-05-28 12:11:00,
2013-05-28 05:21:00,53.3,50.2,29.75,West,278,0.0,0.0,89,0.00,,---,0.00,VWS V14.01,2013-05-28 12:21:00,
2013-05-28 05:26:00,53.2,50.0,29.75,West,278,0.0,0.0,89,0.00,,---,0.00,VWS V14.01,2013-05-28 12:26:00,
2013-05-28 05:31:00,53.2,50.0,29.75,West,278,0.0,0.0,89,0.00,,---,0.00,VWS V14.01,2013-05-28 12:31:00,
2013-05-28 05:41:00,53.1,50.0,29.75,West,278,0.0,0.0,89,0.00,,---,0.00,VWS V14.01,2013-05-28 12:41:00,
2013-05-28 05:51:00,53.1,50.2,29.75,West,278,0.0,0.0,90,0.00,,---,0.00,VWS V14.01,2013-05-28 12:51:00,
2013-05-28 05:56:00,52.9,50.0,29.75,West,278,0.0,0.0,90,0.00,,---,0.00,VWS V14.01,2013-05-28 12:56:00,
2013-05-28 06:06:00,53.1,50.2,29.75,West,278,0.0,0.0,90,0.00,,---,0.00,VWS V14.01,2013-05-28 13:06:00,
2013-05-28 06:11:00,53.1,50.2,29.75,West,278,0.0,0.0,90,0.00,,---,0.00,VWS V14.01,2013-05-28 13:11:00,
2013-05-28 06:16:00,53.1,50.2,29.75,West,278,0.0,0.0,90,0.00,,---,0.00,VWS V14.01,2013-05-28 13:16:00,
2013-05-28 06:26:00,53.1,50.5,29.75,West,278,0.0,0.0,91,0.00,,---,0.00,VWS V14.01,2013-05-28 13:26:00,
2013-05-28 06:31:00,53.1,50.5,29.76,West,278,0.0,0.0,91,0.00,,---,0.00,VWS V14.01,2013-05-28 13:31:00,
2013-05-28 06:41:00,53.2,50.7,29.76,West,278,0.0,0.0,91,0.00,,---,0.00,VWS V14.01,2013-05-28 13:41:00,
2013-05-28 06:46:00,53.2,50.7,29.76,West,278,0.0,0.0,91,0.00,,---,0.00,VWS V14.01,2013-05-28 13:46:00,
2013-05-28 06:51:00,53.3,50.7,29.76,West,278,0.0,0.0,91,0.00,,---,0.00,VWS V14.01,2013-05-28 13:51:00,
2013-05-28 06:56:00,53.5,51.2,29.76,West,278,0.0,0.0,92,0.00,,---,0.00,VWS V14.01,2013-05-28 13:56:00,
2013-05-28 07:01:00,53.6,51.3,29.76,West,278,0.0,0.0,92,0.00,,---,0.00,VWS V14.01,2013-05-28 14:01:00,
2013-05-28 07:11:00,53.8,51.5,29.76,West,278,0.0,0.0,92,0.00,,---,0.00,VWS V14.01,2013-05-28 14:11:00,
2013-05-28 07:16:00,53.8,51.5,29.75,West,278,0.0,0.0,92,0.00,,---,0.00,VWS V14.01,2013-05-28 14:16:00,
2013-05-28 07:21:00,53.9,51.6,29.75,West,278,0.0,0.0,92,0.00,,---,0.00,VWS V14.01,2013-05-28 14:21:00,
2013-05-28 07:31:00,55.0,53.0,29.76,West,278,0.0,0.0,93,0.00,,---,0.00,VWS V14.01,2013-05-28 14:31:00,
2013-05-28 07:36:00,55.7,53.7,29.76,West,278,0.0,0.0,93,0.00,,---,0.00,VWS V14.01,2013-05-28 14:36:00,
2013-05-28 07:41:00,55.9,53.9,29.76,West,278,0.0,0.0,93,0.00,,---,0.00,VWS V14.01,2013-05-28 14:41:00,
2013-05-28 07:46:00,56.3,54.3,29.76,West,278,0.0,0.0,93,0.00,,---,0.00,VWS V14.01,2013-05-28 14:46:00,
2013-05-28 07:51:00,56.7,54.7,29.76,West,278,0.0,0.0,93,0.00,,---,0.00,VWS V14.01,2013-05-28 14:51:00,
2013-05-28 08:01:00,58.0,56.0,29.76,West,278,0.0,0.0,93,0.00,,---,0.00,VWS V14.01,2013-05-28 15:01:00,
2013-05-28 08:06:00,58.7,56.7,29.76,West,278,0.0,0.0,93,0.00,,---,0.00,VWS V14.01,2013-05-28 15:06:00,
2013-05-28 08:11:00,59.6,57.3,29.76,West,278,0.0,0.0,92,0.00,,---,0.00,VWS V14.01,2013-05-28 15:11:00,
2013-05-28 08:21:00,61.5,57.9,29.76,ENE,64,0.0,0.0,88,0.00,,---,0.00,VWS V14.01,2013-05-28 15:21:00,
2013-05-28 08:26:00,62.7,58.1,29.76,ENE,64,0.0,0.0,85,0.00,,---,0.00,VWS V14.01,2013-05-28 15:26:00,
2013-05-28 08:31:00,63.9,58.0,29.76,ENE,66,0.0,0.0,81,0.00,,---,0.00,VWS V14.01,2013-05-28 15:31:00,
2013-05-28 08:36:00,64.2,56.8,29.76,ENE,66,0.0,0.0,77,0.00,,---,0.00,VWS V14.01,2013-05-28 15:36:00,
2013-05-28 08:46:00,65.6,56.7,29.75,ESE,121,0.0,0.0,73,0.00,,---,0.00,VWS V14.01,2013-05-28 15:46:00,
2013-05-28 08:51:00,66.6,57.3,29.75,South,172,0.0,0.0,72,0.00,,---,0.00,VWS V14.01,2013-05-28 15:51:00,
2013-05-28 09:01:00,68.1,57.2,29.74,South,172,0.0,0.0,68,0.00,,---,0.00,VWS V14.01,2013-05-28 16:01:00,
2013-05-28 09:06:00,68.8,57.8,29.74,South,172,0.0,0.0,68,0.00,,---,0.00,VWS V14.01,2013-05-28 16:06:00,
2013-05-28 09:11:00,69.6,56.9,29.74,South,172,0.0,0.0,64,0.00,,---,0.00,VWS V14.01,2013-05-28 16:11:00,
2013-05-28 09:16:00,70.4,55.9,29.74,SSE,154,0.0,0.0,60,0.00,,---,0.00,VWS V14.01,2013-05-28 16:16:00,
2013-05-28 09:21:00,70.9,55.4,29.74,SSE,154,0.0,0.0,58,0.00,,---,0.00,VWS V14.01,2013-05-28 16:21:00,
2013-05-28 09:31:00,71.3,55.3,29.74,ESE,114,0.0,0.0,57,0.00,,---,0.00,VWS V14.01,2013-05-28 16:31:00,
2013-05-28 09:41:00,72.7,56.1,29.74,SSE,157,0.0,0.0,56,0.00,,---,0.00,VWS V14.01,2013-05-28 16:41:00,
2013-05-28 09:46:00,73.3,55.7,29.74,ESE,110,0.0,0.0,54,0.00,,---,0.00,VWS V14.01,2013-05-28 16:46:00,
2013-05-28 09:51:00,73.2,55.6,29.74,ESE,112,0.0,0.0,54,0.00,,---,0.00,VWS V14.01,2013-05-28 16:51:00,
2013-05-28 09:56:00,73.0,55.4,29.74,South,191,0.0,0.0,54,0.00,,---,0.00,VWS V14.01,2013-05-28 16:56:00,
2013-05-28 10:06:00,73.9,56.2,29.74,WSW,256,0.0,0.0,54,0.00,,---,0.00,VWS V14.01,2013-05-28 17:06:00,
2013-05-28 10:11:00,74.7,55.9,29.74,WSW,254,0.0,0.0,52,0.00,,---,0.00,VWS V14.01,2013-05-28 17:11:00,
2013-05-28 10:16:00,75.6,57.3,29.73,SE,140,0.0,0.0,53,0.00,,---,0.00,VWS V14.01,2013-05-28 17:16:00,
2013-05-28 10:26:00,75.8,55.3,29.73,South,189,0.0,0.0,49,0.00,,---,0.00,VWS V14.01,2013-05-28 17:26:00,
2013-05-28 10:31:00,76.0,55.5,29.73,SSE,148,0.0,0.0,49,0.00,,---,0.00,VWS V14.01,2013-05-28 17:31:00,
2013-05-28 10:36:00,76.7,56.1,29.73,SSW,202,0.0,0.0,49,0.00,,---,0.00,VWS V14.01,2013-05-28 17:36:00,
2013-05-28 10:46:00,76.1,56.1,29.72,West,278,0.0,0.0,50,0.00,,---,0.00,VWS V14.01,2013-05-28 17:46:00,
2013-05-28 10:51:00,76.3,56.3,29.72,WSW,246,0.0,0.0,50,0.00,,---,0.00,VWS V14.01,2013-05-28 17:51:00,
2013-05-28 11:01:00,78.1,55.7,29.72,SSE,168,0.0,1.0,46,0.00,,---,0.00,VWS V14.01,2013-05-28 18:01:00,
2013-05-28 11:06:00,78.3,57.6,29.72,WSW,241,2.0,2.0,49,0.00,,---,0.00,VWS V14.01,2013-05-28 18:06:00,
2013-05-28 11:16:00,78.3,56.4,29.72,SSW,213,0.0,3.0,47,0.00,,---,0.00,VWS V14.01,2013-05-28 18:16:00,
2013-05-28 11:21:00,78.3,57.0,29.72,SW,236,0.0,2.0,48,0.00,,---,0.00,VWS V14.01,2013-05-28 18:21:00,
2013-05-28 11:26:00,79.2,57.2,29.72,SSW,202,0.0,2.0,47,0.00,,---,0.00,VWS V14.01,2013-05-28 18:26:00,
2013-05-28 11:36:00,79.9,56.7,29.71,SSE,168,0.0,12.0,45,0.00,,---,0.00,VWS V14.01,2013-05-28 18:36:00,
2013-05-28 11:46:00,80.5,57.8,29.71,SW,216,0.0,3.0,46,0.00,,---,0.00,VWS V14.01,2013-05-28 18:46:00,
2013-05-28 11:51:00,80.3,57.7,29.71,SW,236,0.0,2.0,46,0.00,,---,0.00,VWS V14.01,2013-05-28 18:51:00,
2013-05-28 12:06:00,81.4,58.0,29.72,SW,217,1.0,6.0,45,0.00,,---,0.00,VWS V14.01,2013-05-28 19:06:00,
2013-05-28 12:16:00,81.8,57.8,29.71,WNW,294,0.0,2.0,44,0.00,,---,0.00,VWS V14.01,2013-05-28 19:16:00,
2013-05-28 12:26:00,82.2,58.1,29.71,SW,215,0.0,7.0,44,0.00,,---,0.00,VWS V14.01,2013-05-28 19:26:00,
2013-05-28 12:31:00,81.6,57.6,29.70,South,175,0.0,2.0,44,0.00,,---,0.00,VWS V14.01,2013-05-28 19:31:00,
2013-05-28 12:36:00,82.2,58.1,29.70,WSW,243,2.0,8.0,44,0.00,,---,0.00,VWS V14.01,2013-05-28 19:36:00,
2013-05-28 12:41:00,82.4,57.7,29.70,SSW,209,0.0,6.0,43,0.00,,---,0.00,VWS V14.01,2013-05-28 19:41:00,
2013-05-28 12:46:00,82.8,59.3,29.70,WSW,240,0.0,7.0,45,0.00,,---,0.00,VWS V14.01,2013-05-28 19:46:00,
2013-05-28 12:51:00,82.8,58.7,29.70,SSW,213,1.0,13.0,44,0.00,,---,0.00,VWS V14.01,2013-05-28 19:51:00,
2013-05-28 12:56:00,82.0,58.6,29.70,WSW,239,0.0,12.0,45,0.00,,---,0.00,VWS V14.01,2013-05-28 19:56:00,
2013-05-28 13:01:00,81.8,58.4,29.69,West,263,0.0,10.0,45,0.00,,---,0.00,VWS V14.01,2013-05-28 20:01:00,
2013-05-28 13:06:00,82.2,58.1,29.69,WSW,237,2.0,12.0,44,0.00,,---,0.00,VWS V14.01,2013-05-28 20:06:00,
2013-05-28 13:11:00,81.6,57.6,29.69,WSW,244,1.0,10.0,44,0.00,,---,0.00,VWS V14.01,2013-05-28 20:11:00,
2013-05-28 13:16:00,82.6,57.9,29.70,SSE,151,0.0,11.0,43,0.00,,---,0.00,VWS V14.01,2013-05-28 20:16:00,
2013-05-28 13:21:00,82.8,57.4,29.70,SW,223,0.0,10.0,42,0.00,,---,0.00,VWS V14.01,2013-05-28 20:21:00,
2013-05-28 13:26:00,82.8,56.7,29.70,WSW,244,2.0,7.0,41,0.00,,---,0.00,VWS V14.01,2013-05-28 20:26:00,
2013-05-28 13:36:00,82.6,57.9,29.69,SSW,212,0.0,7.0,43,0.00,,---,0.00,VWS V14.01,2013-05-28 20:36:00,
2013-05-28 13:41:00,84.0,58.5,29.69,WSW,237,0.0,11.0,42,0.00,,---,0.00,VWS V14.01,2013-05-28 20:41:00,
2013-05-28 13:51:00,83.2,57.1,29.68,WSW,244,1.0,12.0,41,0.00,,---,0.00,VWS V14.01,2013-05-28 20:51:00,
2013-05-28 14:01:00,84.0,57.8,29.68,West,263,2.0,8.0,41,0.00,,---,0.00,VWS V14.01,2013-05-28 21:01:00,
2013-05-28 14:06:00,84.1,58.5,29.68,WSW,241,0.0,11.0,42,0.00,,---,0.00,VWS V14.01,2013-05-28 21:06:00,
2013-05-28 14:11:00,83.6,57.4,29.68,West,260,7.0,10.0,41,0.00,,---,0.00,VWS V14.01,2013-05-28 21:11:00,
2013-05-28 14:16:00,83.6,57.4,29.68,West,275,0.0,7.0,41,0.00,,---,0.00,VWS V14.01,2013-05-28 21:16:00,
2013-05-28 14:21:00,83.8,58.3,29.68,WSW,248,2.0,8.0,42,0.00,,---,0.00,VWS V14.01,2013-05-28 21:21:00,
2013-05-28 14:26:00,84.1,57.9,29.68,SSW,213,0.0,8.0,41,0.00,,---,0.00,VWS V14.01,2013-05-28 21:26:00,
2013-05-28 14:36:00,84.1,58.5,29.67,WNW,292,0.0,6.0,42,0.00,,---,0.00,VWS V14.01,2013-05-28 21:36:00,
2013-05-28 14:41:00,84.1,57.9,29.67,SSW,206,0.0,7.0,41,0.00,,---,0.00,VWS V14.01,2013-05-28 21:41:00,
2013-05-28 14:51:00,85.1,58.8,29.67,West,271,0.0,6.0,41,0.00,,---,0.00,VWS V14.01,2013-05-28 21:51:00,
2013-05-28 14:56:00,84.7,57.7,29.67,WSW,244,0.0,11.0,40,0.00,,---,0.00,VWS V14.01,2013-05-28 21:56:00,
2013-05-28 15:01:00,84.1,58.5,29.67,SSW,213,1.0,7.0,42,0.00,,---,0.00,VWS V14.01,2013-05-28 22:01:00,
2013-05-28 15:06:00,84.1,59.9,29.67,South,178,0.0,7.0,44,0.00,,---,0.00,VWS V14.01,2013-05-28 22:06:00,
2013-05-28 15:16:00,84.0,59.1,29.67,WSW,241,0.0,6.0,43,0.00,,---,0.00,VWS V14.01,2013-05-28 22:16:00,
2013-05-28 15:21:00,84.0,59.1,29.67,WNW,285,0.0,6.0,43,0.00,,---,0.00,VWS V14.01,2013-05-28 22:21:00,
2013-05-28 15:31:00,85.5,58.5,29.67,SSW,202,0.0,6.0,40,0.00,,---,0.00,VWS V14.01,2013-05-28 22:31:00,
2013-05-28 15:36:00,85.5,59.1,29.67,WSW,247,0.0,8.0,41,0.00,,---,0.00,VWS V14.01,2013-05-28 22:36:00,
2013-05-28 15:41:00,84.5,59.6,29.67,West,267,0.0,1.0,43,0.00,,---,0.00,VWS V14.01,2013-05-28 22:41:00,
2013-05-28 15:46:00,85.3,59.6,29.67,SSW,192,1.0,7.0,42,0.00,,---,0.00,VWS V14.01,2013-05-28 22:46:00,
2013-05-28 15:56:00,85.3,59.0,29.67,SSW,212,1.0,10.0,41,0.00,,---,0.00,VWS V14.01,2013-05-28 22:56:00,
2013-05-28 16:01:00,85.5,59.8,29.66,WSW,251,1.0,8.0,42,0.00,,---,0.00,VWS V14.01,2013-05-28 23:01:00,
2013-05-28 16:06:00,84.7,59.8,29.66,SSW,200,0.0,5.0,43,0.00,,---,0.00,VWS V14.01,2013-05-28 23:06:00,
2013-05-28 16:16:00,85.3,59.6,29.66,South,185,0.0,1.0,42,0.00,,---,0.00,VWS V14.01,2013-05-28 23:16:00,
2013-05-28 16:21:00,85.3,60.3,29.66,South,175,0.0,0.0,43,0.00,,---,0.00,VWS V14.01,2013-05-28 23:21:00,
2013-05-28 16:26:00,85.1,58.8,29.66,SSW,203,0.0,1.0,41,0.00,,---,0.00,VWS V14.01,2013-05-28 23:26:00,
2013-05-28 16:31:00,84.9,59.3,29.66,South,184,0.0,1.0,42,0.00,,---,0.00,VWS V14.01,2013-05-28 23:31:00,
2013-05-28 16:36:00,84.7,59.8,29.66,SE,126,0.0,1.0,43,0.00,,---,0.00,VWS V14.01,2013-05-28 23:36:00,
2013-05-28 16:46:00,84.3,60.7,29.65,South,188,0.0,1.0,45,0.00,,---,0.00,VWS V14.01,2013-05-28 23:46:00,
2013-05-28 16:51:00,84.7,60.4,29.65,SW,226,0.0,1.0,44,0.00,,---,0.00,VWS V14.01,2013-05-28 23:51:00,
2013-05-28 16:56:00,84.7,60.4,29.65,SW,234,0.0,8.0,44,0.00,,---,0.00,VWS V14.01,2013-05-28 23:56:00,
2013-05-28 17:01:00,84.3,60.0,29.65,South,182,0.0,6.0,44,0.00,,---,0.00,VWS V14.01,2013-05-29 00:01:00,
2013-05-28 17:11:00,84.3,60.0,29.65,SSW,212,1.0,7.0,44,0.00,,---,0.00,VWS V14.01,2013-05-29 00:11:00,
2013-05-28 17:16:00,84.0,59.8,29.65,SSW,199,0.0,6.0,44,0.00,,---,0.00,VWS V14.01,2013-05-29 00:16:00,
2013-05-28 17:21:00,84.1,59.9,29.65,SW,233,0.0,6.0,44,0.00,,---,0.00,VWS V14.01,2013-05-29 00:21:00,
2013-05-28 17:26:00,84.7,60.4,29.65,SSW,209,0.0,5.0,44,0.00,,---,0.00,VWS V14.01,2013-05-29 00:26:00,
2013-05-28 17:31:00,84.9,61.2,29.65,SW,232,0.0,6.0,45,0.00,,---,0.00,VWS V14.01,2013-05-29 00:31:00,
2013-05-28 17:36:00,84.7,60.4,29.65,SW,222,0.0,1.0,44,0.00,,---,0.00,VWS V14.01,2013-05-29 00:36:00,
2013-05-28 17:46:00,84.5,60.8,29.64,SW,230,0.0,1.0,45,0.00,,---,0.00,VWS V14.01,2013-05-29 00:46:00,
2013-05-28 17:51:00,84.1,61.1,29.64,SSW,198,0.0,6.0,46,0.00,,---,0.00,VWS V14.01,2013-05-29 00:51:00,
2013-05-28 17:56:00,83.6,60.7,29.64,SW,227,0.0,7.0,46,0.00,,---,0.00,VWS V14.01,2013-05-29 00:56:00,
2013-05-28 18:01:00,83.2,60.9,29.65,SW,227,0.0,0.0,47,0.00,,---,0.00,VWS V14.01,2013-05-29 01:01:00,
2013-05-28 18:06:00,82.8,61.1,29.65,WSW,240,0.0,0.0,48,0.00,,---,0.00,VWS V14.01,2013-05-29 01:06:00,
2013-05-28 18:11:00,82.6,60.9,29.65,WSW,240,0.0,0.0,48,0.00,,---,0.00,VWS V14.01,2013-05-29 01:11:00,
2013-05-28 18:16:00,82.4,60.8,29.64,SSW,200,0.0,0.0,48,0.00,,---,0.00,VWS V14.01,2013-05-29 01:16:00,
2013-05-28 18:21:00,82.4,61.3,29.64,SSW,198,0.0,6.0,49,0.00,,---,0.00,VWS V14.01,2013-05-29 01:21:00,
2013-05-28 18:31:00,82.0,60.4,29.65,SW,223,0.0,0.0,48,0.00,,---,0.00,VWS V14.01,2013-05-29 01:31:00,
2013-05-28 18:36:00,81.8,60.2,29.65,SW,220,0.0,1.0,48,0.00,,---,0.00,VWS V14.01,2013-05-29 01:36:00,
2013-05-28 18:41:00,81.6,60.6,29.65,SSW,192,0.0,0.0,49,0.00,,---,0.00,VWS V14.01,2013-05-29 01:41:00,
2013-05-28 18:46:00,81.1,60.7,29.65,WSW,251,0.0,1.0,50,0.00,,---,0.00,VWS V14.01,2013-05-29 01:46:00,
2013-05-28 18:51:00,80.3,60.0,29.65,SW,230,0.0,0.0,50,0.00,,---,0.00,VWS V14.01,2013-05-29 01:51:00,
2013-05-28 18:56:00,79.9,60.2,29.65,WSW,241,0.0,0.0,51,0.00,,---,0.00,VWS V14.01,2013-05-29 01:56:00,
2013-05-28 19:01:00,79.4,60.3,29.65,WSW,241,0.0,0.0,52,0.00,,---,0.00,VWS V14.01,2013-05-29 02:01:00,
2013-05-28 19:06:00,78.6,60.1,29.65,SW,229,0.0,0.0,53,0.00,,---,0.00,VWS V14.01,2013-05-29 02:06:00,
2013-05-28 19:11:00,78.3,59.8,29.65,SW,229,0.0,0.0,53,0.00,,---,0.00,VWS V14.01,2013-05-29 02:11:00,
2013-05-28 19:21:00,77.4,60.0,29.65,SW,229,0.0,0.0,55,0.00,,---,0.00,VWS V14.01,2013-05-29 02:21:00,
2013-05-28 19:26:00,76.8,59.4,29.65,SW,229,0.0,0.0,55,0.00,,---,0.00,VWS V14.01,2013-05-29 02:26:00,
2013-05-28 19:31:00,76.5,59.7,29.65,SW,229,0.0,0.0,56,0.00,,---,0.00,VWS V14.01,2013-05-29 02:31:00,
2013-05-28 19:41:00,75.8,60.0,29.65,SW,229,0.0,0.0,58,0.00,,---,0.00,VWS V14.01,2013-05-29 02:41:00,
2013-05-28 19:46:00,75.4,59.6,29.65,SW,229,0.0,0.0,58,0.00,,---,0.00,VWS V14.01,2013-05-29 02:46:00,
2013-05-28 19:51:00,74.9,59.6,29.65,SW,229,0.0,0.0,59,0.00,,---,0.00,VWS V14.01,2013-05-29 02:51:00,
2013-05-28 19:56:00,74.6,59.8,29.65,WSW,246,0.0,0.0,60,0.00,,---,0.00,VWS V14.01,2013-05-29 02:56:00,
2013-05-28 20:01:00,74.2,59.4,29.65,WSW,246,0.0,0.0,60,0.00,,---,0.00,VWS V14.01,2013-05-29 03:01:00,
2013-05-28 20:11:00,73.5,59.2,29.65,WSW,246,0.0,0.0,61,0.00,,---,0.00,VWS V14.01,2013-05-29 03:11:00,
2013-05-28 20:21:00,72.8,58.6,29.65,WSW,246,0.0,0.0,61,0.00,,---,0.00,VWS V14.01,2013-05-29 03:21:00,
2013-05-28 20:26:00,72.3,58.6,29.65,WSW,246,0.0,0.0,62,0.00,,---,0.00,VWS V14.01,2013-05-29 03:26:00,
2013-05-28 20:31:00,71.8,58.5,29.65,WSW,246,0.0,0.0,63,0.00,,---,0.00,VWS V14.01,2013-05-29 03:31:00,
2013-05-28 20:36:00,71.3,58.1,29.65,WSW,246,0.0,0.0,63,0.00,,---,0.00,VWS V14.01,2013-05-29 03:36:00,
2013-05-28 20:41:00,70.9,58.1,29.65,WSW,246,0.0,0.0,64,0.00,,---,0.00,VWS V14.01,2013-05-29 03:41:00,
2013-05-28 20:46:00,70.4,57.7,29.66,WSW,246,0.0,0.0,64,0.00,,---,0.00,VWS V14.01,2013-05-29 03:46:00,
2013-05-28 20:51:00,69.9,57.6,29.66,WSW,246,0.0,0.0,65,0.00,,---,0.00,VWS V14.01,2013-05-29 03:51:00,
2013-05-28 20:56:00,69.6,57.3,29.66,WSW,246,0.0,0.0,65,0.00,,---,0.00,VWS V14.01,2013-05-29 03:56:00,
2013-05-28 21:01:00,69.1,57.3,29.66,WSW,246,0.0,0.0,66,0.00,,---,0.00,VWS V14.01,2013-05-29 04:01:00,
2013-05-28 21:16:00,67.8,56.9,29.65,WNW,282,0.0,0.0,68,0.00,,---,0.00,VWS V14.01,2013-05-29 04:16:00,
2013-05-28 21:21:00,67.1,57.0,29.65,North,0,0.0,0.0,70,0.00,,---,0.00,VWS V14.01,2013-05-29 04:21:00,
2013-05-28 21:26:00,66.6,56.9,29.65,North,0,0.0,0.0,71,0.00,,---,0.00,VWS V14.01,2013-05-29 04:26:00,
2013-05-28 21:31:00,66.3,56.6,29.66,North,0,0.0,0.0,71,0.00,,---,0.00,VWS V14.01,2013-05-29 04:31:00,
2013-05-28 21:36:00,66.1,56.8,29.66,North,0,0.0,0.0,72,0.00,,---,0.00,VWS V14.01,2013-05-29 04:36:00,
2013-05-28 21:41:00,65.8,56.5,29.66,North,0,0.0,0.0,72,0.00,,---,0.00,VWS V14.01,2013-05-29 04:41:00,
2013-05-28 21:46:00,65.5,56.6,29.67,North,0,0.0,0.0,73,0.00,,---,0.00,VWS V14.01,2013-05-29 04:46:00,
2013-05-28 21:51:00,65.3,56.4,29.67,North,0,0.0,0.0,73,0.00,,---,0.00,VWS V14.01,2013-05-29 04:51:00,
2013-05-28 22:01:00,65.0,56.9,29.68,North,0,0.0,0.0,75,0.00,,---,0.00,VWS V14.01,2013-05-29 05:01:00,
2013-05-28 22:06:00,64.7,56.6,29.68,North,0,0.0,0.0,75,0.00,,---,0.00,VWS V14.01,2013-05-29 05:06:00,
2013-05-28 22:11:00,64.5,56.4,29.68,North,0,0.0,0.0,75,0.00,,---,0.00,VWS V14.01,2013-05-29 05:11:00,
2013-05-28 22:16:00,64.3,56.6,29.67,North,0,0.0,0.0,76,0.00,,---,0.00,VWS V14.01,2013-05-29 05:16:00,
2013-05-28 22:21:00,64.2,56.5,29.67,North,0,0.0,0.0,76,0.00,,---,0.00,VWS V14.01,2013-05-29 05:21:00,
2013-05-28 22:26:00,63.9,56.2,29.67,North,0,0.0,0.0,76,0.00,,---,0.00,VWS V14.01,2013-05-29 05:26:00,
2013-05-28 22:36:00,63.4,56.1,29.68,North,0,0.0,0.0,77,0.00,,---,0.00,VWS V14.01,2013-05-29 05:36:00,
2013-05-28 22:46:00,62.9,55.6,29.68,North,0,0.0,0.0,77,0.00,,---,0.00,VWS V14.01,2013-05-29 05:46:00,
2013-05-28 22:51:00,62.6,55.7,29.68,North,0,0.0,0.0,78,0.00,,---,0.00,VWS V14.01,2013-05-29 05:51:00,
2013-05-28 22:56:00,62.4,55.8,29.68,North,0,0.0,0.0,79,0.00,,---,0.00,VWS V14.01,2013-05-29 05:56:00,
2013-05-28 23:01:00,62.4,55.8,29.68,North,0,0.0,0.0,79,0.00,,---,0.00,VWS V14.01,2013-05-29 06:01:00,
2013-05-28 23:11:00,62.0,55.8,29.68,North,0,0.0,0.0,80,0.00,,---,0.00,VWS V14.01,2013-05-29 06:11:00,
2013-05-28 23:16:00,61.8,55.6,29.68,North,0,0.0,0.0,80,0.00,,---,0.00,VWS V14.01,2013-05-29 06:16:00,
2013-05-28 23:21:00,61.6,55.7,29.68,North,0,0.0,0.0,81,0.00,,---,0.00,VWS V14.01,2013-05-29 06:21:00,
2013-05-28 23:31:00,61.2,55.3,29.68,North,0,0.0,0.0,81,0.00,,---,0.00,VWS V14.01,2013-05-29 06:31:00,
2013-05-28 23:36:00,61.0,55.1,29.68,North,0,0.0,0.0,81,0.00,,---,0.00,VWS V14.01,2013-05-29 06:36:00,
2013-05-28 23:46:00,60.5,55.0,29.68,North,0,0.0,0.0,82,0.00,,---,0.00,VWS V14.01,2013-05-29 06:46:00,
2013-05-28 23:56:00,60.1,54.9,29.68,North,0,0.0,0.0,83,0.00,,---,0.00,VWS V14.01,2013-05-29 06:56:00,